Time;durP1;ratioP1;P1;durP2;ratioP2;P2;SDS_P1;SDS_P2;PMS_P1;PMS_P2;Temp;Humidity;BMP_temperature;BMP_pressure;BME280_temperature;BME280_humidity;BME280_pressure;Samples;Min_cycle;Max_cycle;Signal;HPM_P1;HPM_P2
2022/05/15 00:01:29;;;;;;;1.30;1.30;;;21.50;69.10;;;;;;5044191;28;43984;-71
2022/05/15 00:03:59;;;;;;;1.20;1.20;;;21.70;68.60;;;;;;5048032;28;44058;-71
2022/05/15 00:06:27;;;;;;;1.20;1.20;;;21.90;67.90;;;;;;5048139;28;43806;-71
2022/05/15 00:08:55;;;;;;;1.30;1.30;;;21.80;67.30;;;;;;5047175;28;43965;-71
2022/05/15 00:11:22;;;;;;;1.50;1.40;;;21.80;68.60;;;;;;5029241;28;45089;-70
2022/05/15 00:13:50;;;;;;;1.07;1.07;;;21.70;67.50;;;;;;5047442;28;44009;-70
2022/05/15 00:16:18;;;;;;;1.30;1.30;;;21.60;66.50;;;;;;5047947;28;44060;-72
2022/05/15 00:18:46;;;;;;;1.23;1.23;;;21.50;66.40;;;;;;5047128;28;44018;-71
2022/05/15 00:21:16;;;;;;;1.10;1.10;;;21.50;66.60;;;;;;5047481;28;43443;-70
2022/05/15 00:23:44;;;;;;;1.30;1.30;;;21.40;68.90;;;;;;5047585;28;43972;-71
2022/05/15 00:26:12;;;;;;;1.20;1.20;;;21.40;69.50;;;;;;5047650;28;44044;-71
2022/05/15 00:28:40;;;;;;;1.47;1.30;;;21.50;69.10;;;;;;5047044;28;43971;-71
2022/05/15 00:31:08;;;;;;;1.30;1.30;;;21.60;68.70;;;;;;5047021;28;44012;-70
2022/05/15 00:33:36;;;;;;;1.10;1.10;;;21.60;68.50;;;;;;5044856;28;43973;-70
2022/05/15 00:36:04;;;;;;;1.30;1.30;;;21.50;67.90;;;;;;5047145;28;44102;-71
2022/05/15 00:38:34;;;;;;;1.20;1.20;;;21.40;66.90;;;;;;5046891;28;43991;-70
2022/05/15 00:41:02;;;;;;;1.10;1.10;;;21.40;66.80;;;;;;5046607;28;43472;-71
2022/05/15 00:43:39;;;;;;;1.27;1.27;;;21.30;66.90;;;;;;5047677;28;44035;-71
2022/05/15 00:46:08;;;;;;;1.17;1.17;;;21.30;67.10;;;;;;5047458;28;43404;-71
2022/05/15 00:48:37;;;;;;;1.20;1.20;;;21.20;67.10;;;;;;5046640;28;43629;-71
2022/05/15 00:51:09;;;;;;;1.07;1.07;;;21.20;67.20;;;;;;5045157;28;45745;-70
2022/05/15 00:53:39;;;;;;;1.40;1.40;;;21.20;68.60;;;;;;5046849;28;43356;-71
2022/05/15 00:56:06;;;;;;;1.43;1.43;;;21.20;70.00;;;;;;5047511;28;43988;-71
2022/05/15 00:58:39;;;;;;;1.40;1.40;;;21.40;69.80;;;;;;5046655;28;43910;-72
2022/05/15 01:01:08;;;;;;;1.13;1.13;;;21.60;69.20;;;;;;5044775;28;44003;-71
2022/05/15 01:03:37;;;;;;;1.30;1.30;;;21.70;68.70;;;;;;5045115;28;43371;-70
2022/05/15 01:06:05;;;;;;;1.13;1.13;;;21.80;67.60;;;;;;5025445;28;44004;-71
2022/05/15 01:08:33;;;;;;;1.40;1.40;;;21.80;67.60;;;;;;5021949;28;43884;-71
2022/05/15 01:11:10;;;;;;;1.40;1.40;;;21.70;67.80;;;;;;5039798;28;43385;-71
2022/05/15 01:13:39;;;;;;;1.30;1.30;;;21.70;67.30;;;;;;5037485;28;43951;-71
2022/05/15 01:16:07;;;;;;;1.37;1.27;;;21.60;66.60;;;;;;5046997;28;43474;-70
2022/05/15 01:18:36;;;;;;;1.20;1.20;;;21.50;66.60;;;;;;5027966;28;44035;-71
2022/05/15 01:21:18;;;;;;;1.20;1.20;;;21.40;66.70;;;;;;5028152;28;43499;-71
2022/05/15 01:23:46;;;;;;;1.20;1.20;;;21.40;67.80;;;;;;5046700;28;43465;-70
2022/05/15 01:26:15;;;;;;;1.33;1.33;;;21.40;69.70;;;;;;5028894;28;44009;-71
2022/05/15 01:28:45;;;;;;;1.60;1.60;;;21.40;70.30;;;;;;5028212;28;45710;-71
2022/05/15 01:31:14;;;;;;;1.30;1.30;;;21.50;69.10;;;;;;5027909;28;44883;-70
2022/05/15 01:33:42;;;;;;;1.30;1.30;;;21.50;68.60;;;;;;5028106;28;44033;-71
2022/05/15 01:36:11;;;;;;;1.33;1.33;;;21.50;68.40;;;;;;5046469;28;43446;-70
2022/05/15 01:38:39;;;;;;;1.40;1.40;;;21.50;67.30;;;;;;5027863;28;44251;-71
2022/05/15 01:41:08;;;;;;;1.30;1.30;;;21.40;67.00;;;;;;5043507;28;44862;-70
2022/05/15 01:43:36;;;;;;;1.30;1.30;;;21.30;66.90;;;;;;5028093;28;44015;-70
2022/05/15 01:46:05;;;;;;;1.20;1.20;;;21.30;67.10;;;;;;5031308;28;44049;-71
2022/05/15 01:48:33;;;;;;;1.40;1.40;;;21.30;67.30;;;;;;5049582;28;43911;-70
2022/05/15 01:51:01;;;;;;;1.20;1.20;;;21.20;67.40;;;;;;5031555;28;46061;-71
2022/05/15 01:53:30;;;;;;;1.57;1.57;;;21.20;67.90;;;;;;5031698;28;44044;-71
2022/05/15 01:55:58;;;;;;;1.33;1.33;;;21.20;70.00;;;;;;5032152;28;44113;-70
2022/05/15 01:58:26;;;;;;;1.30;1.30;;;21.30;70.20;;;;;;5048090;28;44028;-70
2022/05/15 02:00:54;;;;;;;1.37;1.37;;;21.50;69.60;;;;;;5047409;28;44681;-70
2022/05/15 02:03:22;;;;;;;1.47;1.47;;;21.70;68.80;;;;;;5047731;28;44028;-70
2022/05/15 02:05:51;;;;;;;1.30;1.30;;;21.80;68.00;;;;;;5048144;28;44047;-70
2022/05/15 02:08:19;;;;;;;1.30;1.30;;;21.80;67.70;;;;;;5031250;28;45652;-70
2022/05/15 02:10:49;;;;;;;1.50;1.50;;;21.80;67.80;;;;;;5047472;28;45013;-70
2022/05/15 02:13:17;;;;;;;1.30;1.30;;;21.70;67.70;;;;;;5031142;28;43854;-70
2022/05/15 02:15:46;;;;;;;1.40;1.40;;;21.70;67.00;;;;;;5047986;28;44317;-70
2022/05/15 02:18:14;;;;;;;1.13;1.13;;;21.50;66.60;;;;;;5047413;28;44079;-71
2022/05/15 02:20:42;;;;;;;1.10;1.10;;;21.50;66.80;;;;;;5049356;28;43927;-71
2022/05/15 02:23:10;;;;;;;1.40;1.40;;;21.40;66.90;;;;;;5049262;28;43968;-71
2022/05/15 02:25:40;;;;;;;1.27;1.20;;;21.40;69.60;;;;;;5031304;28;44065;-71
2022/05/15 02:28:09;;;;;;;1.40;1.40;;;21.40;69.90;;;;;;5048717;28;44780;-71
2022/05/15 02:30:37;;;;;;;1.40;1.40;;;21.50;68.80;;;;;;5048991;28;43348;-70
2022/05/15 02:33:05;;;;;;;1.30;1.30;;;21.60;68.70;;;;;;5030916;28;44033;-71
2022/05/15 02:35:34;;;;;;;1.20;1.20;;;21.60;68.50;;;;;;5047516;28;44025;-71
2022/05/15 02:38:04;;;;;;;1.20;1.20;;;21.50;67.50;;;;;;5030707;28;45838;-71
2022/05/15 02:40:33;;;;;;;1.30;1.30;;;21.40;66.90;;;;;;5047004;28;44677;-70
2022/05/15 02:43:01;;;;;;;1.20;1.20;;;21.40;67.00;;;;;;5030652;28;43994;-70
2022/05/15 02:45:30;;;;;;;1.33;1.33;;;21.30;67.10;;;;;;5049611;28;44040;-70
2022/05/15 02:47:58;;;;;;;1.30;1.30;;;21.30;67.30;;;;;;5047261;28;45114;-71
2022/05/15 02:53:12;;;;;;;1.30;1.30;;;21.20;67.40;;;;;;5049071;28;44029;-70
2022/05/15 02:55:40;;;;;;;1.23;1.23;;;21.20;70.00;;;;;;5030323;28;44006;-71
2022/05/15 02:58:08;;;;;;;1.40;1.40;;;21.30;70.10;;;;;;5030151;28;46114;-71
2022/05/15 03:00:37;;;;;;;1.50;1.50;;;21.50;69.80;;;;;;5030181;28;44999;-72
2022/05/15 03:03:05;;;;;;;1.37;1.37;;;21.60;69.00;;;;;;5048647;28;43419;-72
2022/05/15 03:05:34;;;;;;;1.20;1.20;;;21.70;68.00;;;;;;5049129;28;43977;-70
2022/05/15 03:08:02;;;;;;;1.30;1.30;;;21.80;68.10;;;;;;5048356;28;44782;-71
2022/05/15 03:10:30;;;;;;;1.23;1.23;;;21.80;68.30;;;;;;5048472;28;43967;-70
2022/05/15 03:12:57;;;;;;;1.23;1.23;;;21.70;67.50;;;;;;5048797;28;43326;-71
2022/05/15 03:15:25;;;;;;;1.40;1.40;;;21.60;66.90;;;;;;5048881;28;43949;-71
2022/05/15 03:17:55;;;;;;;1.20;1.20;;;21.50;66.80;;;;;;5048182;28;44789;-71
2022/05/15 03:20:27;;;;;;;1.10;1.10;;;21.40;66.90;;;;;;5029609;28;44762;-70
2022/05/15 03:22:55;;;;;;;1.17;1.17;;;21.30;66.90;;;;;;5030123;28;44055;-71
2022/05/15 03:25:23;;;;;;;1.60;1.50;;;21.30;68.20;;;;;;5048699;28;43945;-72
2022/05/15 03:27:51;;;;;;;1.97;1.70;;;21.30;69.80;;;;;;5046158;28;46168;-70
2022/05/15 03:30:19;;;;;;;2.93;2.40;;;21.40;69.70;;;;;;5047893;28;43999;-71
2022/05/15 03:32:47;;;;;;;5.30;2.20;;;21.50;69.10;;;;;;5048221;28;43849;-71
2022/05/15 03:35:16;;;;;;;4.00;2.20;;;21.50;69.00;;;;;;5048361;28;44075;-70
2022/05/15 03:37:44;;;;;;;3.33;2.17;;;21.50;68.40;;;;;;5047692;28;44057;-71
2022/05/15 03:40:14;;;;;;;2.90;2.70;;;21.50;67.60;;;;;;5029387;28;43951;-70
2022/05/15 03:42:43;;;;;;;4.83;2.57;;;21.40;67.10;;;;;;5028778;28;43950;-71
2022/05/15 03:45:12;;;;;;;5.20;3.00;;;21.30;67.20;;;;;;5047110;28;44092;-71
2022/05/15 03:47:45;;;;;;;7.93;3.20;;;21.30;67.30;;;;;;5048083;28;45122;-71
2022/05/15 03:50:14;;;;;;;7.60;3.50;;;21.20;67.40;;;;;;5046226;28;44015;-71
2022/05/15 03:52:44;;;;;;;6.30;3.67;;;21.20;67.50;;;;;;5048040;28;43996;-71
2022/05/15 03:55:12;;;;;;;8.90;3.80;;;21.20;67.70;;;;;;5030207;28;43915;-70
2022/05/15 03:57:40;;;;;;;5.93;4.00;;;21.20;69.90;;;;;;5029729;28;46554;-71
2022/05/15 04:00:10;;;;;;;6.93;3.67;;;21.20;69.90;;;;;;5046113;28;46178;-71
2022/05/15 04:02:40;;;;;;;6.73;4.07;;;21.40;70.00;;;;;;5044892;28;44088;-71
2022/05/15 04:05:09;;;;;;;9.53;4.83;;;21.60;69.50;;;;;;5046846;28;43936;-71
2022/05/15 04:07:43;;;;;;;8.97;4.10;;;21.70;69.00;;;;;;5028492;28;47082;-70
2022/05/15 04:10:12;;;;;;;9.07;4.53;;;21.80;68.20;;;;;;5047651;28;43755;-70
2022/05/15 04:12:40;;;;;;;9.17;4.47;;;21.80;68.40;;;;;;5041380;28;43895;-70
2022/05/15 04:15:09;;;;;;;8.57;4.00;;;21.80;68.20;;;;;;5023365;28;44000;-70
2022/05/15 04:17:41;;;;;;;7.53;4.23;;;21.60;67.10;;;;;;5040944;28;44191;-71
2022/05/15 04:20:10;;;;;;;6.83;3.80;;;21.50;66.60;;;;;;5045733;28;45009;-71
2022/05/15 04:22:38;;;;;;;7.03;4.50;;;21.50;66.90;;;;;;5046340;28;43934;-70
2022/05/15 04:25:10;;;;;;;6.73;3.93;;;21.40;67.00;;;;;;5029661;28;43580;-70
2022/05/15 04:27:39;;;;;;;7.27;4.40;;;21.30;69.40;;;;;;5045995;28;45620;-71
2022/05/15 04:30:08;;;;;;;6.50;4.00;;;21.40;70.10;;;;;;5047532;28;44037;-70
2022/05/15 04:32:36;;;;;;;8.53;4.50;;;21.50;69.80;;;;;;5045527;28;43419;-70
2022/05/15 04:35:04;;;;;;;5.63;3.97;;;21.50;68.80;;;;;;5047829;28;43890;-70
2022/05/15 04:37:33;;;;;;;5.47;3.90;;;21.50;68.70;;;;;;5047409;28;45154;-70
2022/05/15 04:40:01;;;;;;;5.07;3.70;;;21.50;67.90;;;;;;5047436;28;44109;-70
2022/05/15 04:42:30;;;;;;;6.17;4.50;;;21.40;67.10;;;;;;5047342;28;43895;-71
2022/05/15 04:44:59;;;;;;;5.93;3.87;;;21.40;67.30;;;;;;5047971;28;44062;-70
2022/05/15 04:47:26;;;;;;;6.47;4.33;;;21.30;67.30;;;;;;5047440;28;43900;-69
2022/05/15 04:49:55;;;;;;;5.23;4.27;;;21.20;67.40;;;;;;5047179;28;44033;-70
2022/05/15 04:52:23;;;;;;;4.97;3.97;;;21.20;67.50;;;;;;5047403;28;44108;-71
2022/05/15 04:54:51;;;;;;;6.37;4.47;;;21.20;67.60;;;;;;5047508;28;44341;-70
2022/05/15 04:57:19;;;;;;;7.00;4.30;;;21.20;69.30;;;;;;5047114;28;44233;-71
2022/05/15 04:59:48;;;;;;;7.23;4.07;;;21.20;69.90;;;;;;5047183;28;43960;-71
2022/05/15 05:02:16;;;;;;;7.03;3.90;;;21.40;70.20;;;;;;5046982;28;43390;-72
2022/05/15 05:04:44;;;;;;;6.13;4.40;;;21.50;69.80;;;;;;5047563;28;43378;-70
2022/05/15 05:07:12;;;;;;;7.13;3.93;;;21.70;68.90;;;;;;5047047;28;43938;-71
2022/05/15 05:09:39;;;;;;;5.73;3.83;;;21.80;68.20;;;;;;5046755;28;43521;-70
2022/05/15 05:12:09;;;;;;;5.63;3.77;;;21.80;68.40;;;;;;5033396;28;43962;-72
2022/05/15 05:14:37;;;;;;;6.20;4.00;;;21.80;68.20;;;;;;5047426;28;43965;-70
2022/05/15 05:17:06;;;;;;;3.77;3.47;;;21.70;67.30;;;;;;5046954;28;43743;-70
2022/05/15 05:19:34;;;;;;;4.23;3.83;;;21.60;66.90;;;;;;5046688;28;43775;-71
2022/05/15 05:22:02;;;;;;;5.03;3.70;;;21.50;66.90;;;;;;5046740;28;43428;-70
2022/05/15 05:24:30;;;;;;;5.20;3.80;;;21.40;66.90;;;;;;5047441;28;44214;-71
2022/05/15 05:26:58;;;;;;;5.73;3.90;;;21.40;67.20;;;;;;5046842;28;43946;-71
2022/05/15 05:29:26;;;;;;;4.83;3.70;;;21.30;69.60;;;;;;5046786;28;43363;-70
2022/05/15 05:31:53;;;;;;;4.73;3.70;;;21.40;70.30;;;;;;5044636;28;44006;-71
2022/05/15 05:34:23;;;;;;;4.93;3.57;;;21.50;69.50;;;;;;5046845;28;43906;-70
2022/05/15 05:36:51;;;;;;;5.73;4.00;;;21.50;69.00;;;;;;5046783;28;43968;-71
2022/05/15 05:39:18;;;;;;;4.37;3.30;;;21.50;68.60;;;;;;5046242;28;43908;-70
2022/05/15 05:41:46;;;;;;;4.00;3.63;;;21.50;67.70;;;;;;5046384;28;43992;-72
2022/05/15 05:44:14;;;;;;;4.10;3.60;;;21.40;67.20;;;;;;5047067;28;44052;-70
2022/05/15 05:46:42;;;;;;;4.47;3.50;;;21.40;67.30;;;;;;5046271;28;45120;-70
2022/05/15 05:49:10;;;;;;;3.83;3.43;;;21.30;67.30;;;;;;5046510;28;43487;-70
2022/05/15 05:51:39;;;;;;;4.03;3.53;;;21.30;67.50;;;;;;5046565;28;43965;-71
2022/05/15 05:54:07;;;;;;;3.90;3.50;;;21.20;67.50;;;;;;5046688;28;44259;-71
2022/05/15 05:56:35;;;;;;;4.10;3.47;;;21.20;67.50;;;;;;5046212;28;43747;-70
2022/05/15 05:59:03;;;;;;;5.17;3.50;;;21.20;69.80;;;;;;5046487;28;43445;-70
2022/05/15 06:01:31;;;;;;;3.67;3.30;;;21.30;70.10;;;;;;5046772;28;44024;-70
2022/05/15 06:06:51;;;;;;;3.90;3.50;;;21.60;69.50;;;;;;5030263;28;43891;-71
2022/05/15 06:09:19;;;;;;;3.50;3.27;;;21.70;68.40;;;;;;5046062;28;44393;-70
2022/05/15 06:11:47;;;;;;;4.83;3.80;;;21.70;68.70;;;;;;5046642;28;43908;-70
2022/05/15 06:14:15;;;;;;;3.73;3.37;;;21.70;68.50;;;;;;5046882;28;43462;-71
2022/05/15 06:16:43;;;;;;;3.57;3.27;;;21.70;67.90;;;;;;5028003;28;45756;-70
2022/05/15 06:19:11;;;;;;;4.50;3.30;;;21.50;67.00;;;;;;5046294;28;43367;-71
2022/05/15 06:21:39;;;;;;;3.50;3.00;;;21.50;67.00;;;;;;5046083;28;43312;-72
2022/05/15 06:24:09;;;;;;;2.90;2.80;;;21.40;67.10;;;;;;5046291;28;43548;-71
2022/05/15 06:26:37;;;;;;;3.80;3.43;;;21.30;67.20;;;;;;5039347;28;44002;-70
2022/05/15 06:29:05;;;;;;;4.23;3.00;;;21.30;69.60;;;;;;5045951;28;43877;-71
2022/05/15 06:31:33;;;;;;;3.83;3.20;;;21.30;70.10;;;;;;5048235;28;43945;-70
2022/05/15 06:34:00;;;;;;;3.53;3.23;;;21.50;69.80;;;;;;5031799;28;43435;-70
2022/05/15 06:36:28;;;;;;;3.20;3.00;;;21.50;69.20;;;;;;5047752;28;44978;-70
2022/05/15 06:38:56;;;;;;;3.33;3.03;;;21.50;68.80;;;;;;5049302;28;43858;-70
2022/05/15 06:41:26;;;;;;;3.37;3.17;;;21.40;67.60;;;;;;5048904;28;43941;-71
2022/05/15 06:43:54;;;;;;;3.07;2.77;;;21.30;67.30;;;;;;5043324;28;43957;-70
2022/05/15 06:46:22;;;;;;;3.03;2.80;;;21.30;67.50;;;;;;5049323;28;43909;-70
2022/05/15 06:48:50;;;;;;;3.30;3.00;;;21.20;67.60;;;;;;5041088;28;44719;-71
2022/05/15 06:51:18;;;;;;;3.37;3.13;;;21.20;67.70;;;;;;5042542;28;43889;-69
2022/05/15 06:53:47;;;;;;;3.30;3.10;;;21.20;67.90;;;;;;5042992;28;43966;-70
2022/05/15 06:59:02;;;;;;;2.97;2.83;;;21.10;69.40;;;;;;5045110;28;43974;-70
2022/05/15 07:01:30;;;;;;;4.47;3.33;;;21.20;70.10;;;;;;5049155;28;43980;-71
2022/05/15 07:03:58;;;;;;;3.17;2.87;;;21.30;70.40;;;;;;5049496;28;43410;-71
2022/05/15 07:06:26;;;;;;;3.27;2.93;;;21.50;70.10;;;;;;5040576;28;46035;-70
2022/05/15 07:08:54;;;;;;;3.30;2.80;;;21.60;69.10;;;;;;5049000;28;44571;-71
2022/05/15 07:11:24;;;;;;;3.10;2.90;;;21.70;68.60;;;;;;5048913;28;43799;-70
2022/05/15 07:13:52;;;;;;;3.10;2.90;;;21.70;68.70;;;;;;5049280;28;43772;-70
2022/05/15 07:16:22;;;;;;;3.07;2.90;;;21.60;68.20;;;;;;5048504;28;43917;-71
2022/05/15 07:18:50;;;;;;;3.17;2.87;;;21.50;67.20;;;;;;5030193;28;44497;-70
2022/05/15 07:21:18;;;;;;;3.10;2.90;;;21.50;67.20;;;;;;5048474;28;43905;-70
2022/05/15 07:23:46;;;;;;;3.00;2.80;;;21.40;67.30;;;;;;5048869;28;43985;-70
2022/05/15 07:26:14;;;;;;;3.10;2.90;;;21.30;67.40;;;;;;5048708;28;43730;-70
2022/05/15 07:28:42;;;;;;;3.00;2.80;;;21.20;67.70;;;;;;5048516;28;43980;-70
2022/05/15 07:31:12;;;;;;;2.80;2.70;;;21.20;70.00;;;;;;5030278;28;43457;-70
2022/05/15 07:33:42;;;;;;;2.93;2.73;;;21.30;70.40;;;;;;5049090;28;43326;-72
2022/05/15 07:36:13;;;;;;;2.90;2.80;;;21.40;69.60;;;;;;5048218;28;43874;-70
2022/05/15 07:38:41;;;;;;;3.03;2.70;;;21.40;69.30;;;;;;5048439;28;44167;-71
2022/05/15 07:41:08;;;;;;;2.57;2.37;;;21.40;68.50;;;;;;5047943;28;44032;-71
2022/05/15 07:43:36;;;;;;;3.03;2.83;;;21.40;67.60;;;;;;5047450;28;43987;-71
2022/05/15 07:46:04;;;;;;;2.97;2.80;;;21.30;67.50;;;;;;5048372;28;43945;-70
2022/05/15 07:48:32;;;;;;;3.10;2.90;;;21.20;67.60;;;;;;5048018;28;43874;-70
2022/05/15 07:51:02;;;;;;;3.20;3.00;;;21.20;67.90;;;;;;5048586;28;43904;-71
2022/05/15 07:53:29;;;;;;;2.77;2.57;;;21.10;68.60;;;;;;5048846;28;43420;-71
2022/05/15 07:55:59;;;;;;;3.67;2.47;;;21.10;68.00;;;;;;5048087;28;44974;-71
2022/05/15 07:58:27;;;;;;;3.00;2.70;;;21.00;68.00;;;;;;5048052;28;43867;-71
2022/05/15 08:00:55;;;;;;;2.90;2.70;;;21.10;69.60;;;;;;5048283;28;43976;-71
2022/05/15 08:03:23;;;;;;;2.67;2.43;;;21.10;68.00;;;;;;5048310;28;43951;-70
2022/05/15 08:08:34;;;;;;;4.17;2.80;;;21.40;65.70;;;;;;5014207;28;43989;-71
2022/05/15 08:11:02;;;;;;;3.07;1.83;;;21.60;64.00;;;;;;5041837;28;43963;-70
2022/05/15 08:13:31;;;;;;;2.60;2.30;;;21.60;63.60;;;;;;5048271;28;43869;-71
2022/05/15 08:15:59;;;;;;;3.07;2.23;;;21.60;64.50;;;;;;5048215;28;44038;-71
2022/05/15 08:24:00;;;;;;;4.73;2.47;;;21.30;64.80;;;;;;5029649;28;43511;-71
2022/05/15 08:26:28;;;;;;;6.53;2.53;;;21.20;65.10;;;;;;5047810;28;43846;-70
2022/05/15 08:28:57;;;;;;;3.43;2.40;;;21.20;65.50;;;;;;5047506;28;43942;-71
2022/05/15 08:31:25;;;;;;;5.93;2.50;;;21.10;68.30;;;;;;5047732;28;43956;-69
2022/05/15 08:33:55;;;;;;;3.60;2.67;;;21.20;68.50;;;;;;5048108;28;43897;-71
2022/05/15 08:36:26;;;;;;;7.43;2.97;;;21.30;68.20;;;;;;5029197;28;45397;-70
2022/05/15 08:38:54;;;;;;;3.83;2.50;;;21.40;67.70;;;;;;5047348;28;43965;-70
2022/05/15 08:41:37;;;;;;;4.50;2.13;;;21.30;66.40;;;;;;5047067;28;43936;-71
2022/05/15 08:44:08;;;;;;;2.40;2.20;;;21.30;65.50;;;;;;5043118;28;43921;-71
2022/05/15 08:46:41;;;;;;;4.80;2.40;;;21.20;65.40;;;;;;5047177;28;43984;-70
2022/05/15 08:49:11;;;;;;;2.23;2.13;;;21.20;65.60;;;;;;5047419;28;43894;-71
2022/05/15 08:51:40;;;;;;;3.97;2.60;;;21.10;65.70;;;;;;5047279;28;43341;-71
2022/05/15 08:54:08;;;;;;;4.70;2.53;;;21.10;65.80;;;;;;5046909;28;44307;-71
2022/05/15 08:56:41;;;;;;;4.33;2.80;;;21.00;65.90;;;;;;5047076;28;44146;-70
2022/05/15 08:59:13;;;;;;;3.47;2.37;;;21.00;66.30;;;;;;5047060;28;43380;-71
2022/05/15 09:01:40;;;;;;;2.90;2.40;;;21.00;68.50;;;;;;5046945;28;43966;-71
2022/05/15 09:04:08;;;;;;;2.50;2.30;;;21.20;69.00;;;;;;5047347;28;43969;-71
2022/05/15 09:06:40;;;;;;;2.27;2.17;;;21.30;68.00;;;;;;5047184;28;43850;-70
2022/05/15 09:09:14;;;;;;;2.30;2.20;;;21.50;68.20;;;;;;5047183;28;43401;-71
2022/05/15 09:11:49;;;;;;;2.77;2.13;;;21.60;67.50;;;;;;5047333;28;43957;-71
2022/05/15 09:14:38;;;;;;;2.50;2.10;;;21.60;67.20;;;;;;5022944;28;43591;-70
2022/05/15 09:17:17;;;;;;;2.30;2.00;;;21.60;67.00;;;;;;5041623;28;46780;-70
2022/05/15 09:19:46;;;;;;;1.70;1.70;;;21.50;65.50;;;;;;5046815;28;43871;-70
2022/05/15 09:22:14;;;;;;;2.20;2.10;;;21.30;65.30;;;;;;5046707;28;43925;-69
2022/05/15 09:24:45;;;;;;;2.00;1.90;;;21.20;65.30;;;;;;5047111;28;43980;-71
2022/05/15 09:27:20;;;;;;;2.20;2.10;;;21.20;65.60;;;;;;5046675;28;43886;-72
2022/05/15 09:29:53;;;;;;;2.10;2.00;;;21.10;66.40;;;;;;5046718;28;44019;-71
2022/05/15 09:32:27;;;;;;;2.30;2.20;;;21.10;68.30;;;;;;5040636;28;44008;-71
2022/05/15 09:34:56;;;;;;;2.43;2.33;;;21.20;68.90;;;;;;5041200;28;43443;-70
2022/05/15 09:40:15;;;;;;;1.90;1.80;;;21.30;67.50;;;;;;5047496;28;44017;-70
2022/05/15 09:45:46;;;;;;;2.13;2.03;;;21.20;65.70;;;;;;5041689;28;43457;-71
2022/05/15 09:48:14;;;;;;;1.97;1.97;;;21.20;65.90;;;;;;5046307;28;44037;-71
2022/05/15 09:50:53;;;;;;;2.40;2.20;;;21.10;65.90;;;;;;5028338;28;45207;-70
2022/05/15 09:53:21;;;;;;;1.93;1.93;;;21.10;66.10;;;;;;5028450;28;43898;-71
2022/05/15 09:55:57;;;;;;;2.00;1.90;;;21.00;66.10;;;;;;5028444;28;44012;-71
2022/05/15 09:58:36;;;;;;;2.13;2.00;;;21.00;66.30;;;;;;5046401;28;45167;-71
2022/05/15 10:01:24;;;;;;;1.97;1.87;;;21.00;68.30;;;;;;5046255;28;43916;-71
2022/05/15 10:03:54;;;;;;;2.00;1.90;;;21.10;69.00;;;;;;5042385;28;44017;-70
2022/05/15 10:06:23;;;;;;;1.90;1.80;;;21.30;69.00;;;;;;5030208;28;44049;-70
2022/05/15 10:09:10;;;;;;;1.90;1.80;;;21.40;68.70;;;;;;5049790;28;43976;-71
2022/05/15 10:11:40;;;;;;;2.70;2.00;;;21.60;68.10;;;;;;5049529;28;43941;-70
2022/05/15 10:14:11;;;;;;;1.80;1.80;;;21.60;67.50;;;;;;5049937;28;43989;-70
2022/05/15 10:16:53;;;;;;;2.60;1.90;;;21.60;66.70;;;;;;5050198;28;43917;-71
2022/05/15 10:19:26;;;;;;;2.13;2.03;;;21.50;65.70;;;;;;5044622;28;45132;-70
2022/05/15 10:22:00;;;;;;;2.00;2.00;;;21.40;65.60;;;;;;5049700;28;43465;-71
2022/05/15 10:24:41;;;;;;;1.90;1.80;;;21.30;65.80;;;;;;5049308;28;43963;-71
2022/05/15 10:27:11;;;;;;;2.00;1.90;;;21.20;65.90;;;;;;5050261;28;43981;-71
2022/05/15 10:29:43;;;;;;;1.80;1.80;;;21.20;66.20;;;;;;5030993;28;44091;-70
2022/05/15 10:32:13;;;;;;;2.03;1.93;;;21.20;69.10;;;;;;5031136;28;43435;-71
2022/05/15 10:34:41;;;;;;;2.20;2.10;;;21.30;69.40;;;;;;5049121;28;43877;-71
2022/05/15 10:37:17;;;;;;;1.70;1.70;;;21.40;69.00;;;;;;5031505;28;43592;-70
2022/05/15 10:39:54;;;;;;;1.90;1.90;;;21.40;67.80;;;;;;5042913;28;44012;-71
2022/05/15 10:42:25;;;;;;;2.00;1.90;;;21.40;66.80;;;;;;5026002;28;44879;-70
2022/05/15 10:45:00;;;;;;;2.60;1.93;;;21.30;66.20;;;;;;5049204;28;44003;-70
2022/05/15 10:47:29;;;;;;;1.77;1.67;;;21.30;66.40;;;;;;5050017;28;43487;-71
2022/05/15 10:50:04;;;;;;;1.60;1.60;;;21.20;66.50;;;;;;5049289;28;44048;-71
2022/05/15 10:52:53;;;;;;;1.70;1.70;;;21.20;66.70;;;;;;5049294;28;44242;-71
2022/05/15 10:58:41;;;;;;;2.03;1.93;;;21.10;66.90;;;;;;4981344;28;43470;-71
2022/05/15 11:01:12;;;;;;;1.80;1.70;;;21.10;67.30;;;;;;4981653;28;44979;-71
2022/05/15 11:03:51;;;;;;;1.70;1.70;;;21.10;69.10;;;;;;5017251;28;43823;-70
2022/05/15 11:06:44;;;;;;;1.77;1.77;;;21.20;69.40;;;;;;5048900;28;44029;-71
2022/05/15 11:09:14;;;;;;;1.97;1.87;;;21.40;69.10;;;;;;5031046;28;43721;-71
2022/05/15 11:12:16;;;;;;;1.80;1.80;;;21.50;68.50;;;;;;5046815;28;45818;-71
2022/05/15 11:15:00;;;;;;;1.87;1.77;;;21.60;67.90;;;;;;5042380;28;43886;-72
2022/05/15 11:17:41;;;;;;;1.70;1.70;;;21.50;67.10;;;;;;5041920;28;44076;-71
2022/05/15 11:20:18;;;;;;;1.97;1.87;;;21.50;66.30;;;;;;5049358;28;44077;-71
2022/05/15 11:22:48;;;;;;;1.60;1.50;;;21.40;66.30;;;;;;5046766;28;45375;-71
2022/05/15 11:25:18;;;;;;;1.60;1.60;;;21.30;66.50;;;;;;5030049;28;45128;-71
2022/05/15 11:27:48;;;;;;;2.30;1.83;;;21.30;66.70;;;;;;5048830;28;44045;-71
2022/05/15 11:30:21;;;;;;;2.03;1.93;;;21.20;66.70;;;;;;5030394;28;43914;-71
2022/05/15 11:33:08;;;;;;;2.27;1.70;;;21.20;67.40;;;;;;5048470;28;44084;-70
2022/05/15 11:35:38;;;;;;;3.80;2.10;;;21.20;66.70;;;;;;5043478;28;43908;-71
2022/05/15 11:38:09;;;;;;;2.77;1.80;;;21.10;68.10;;;;;;5047255;28;43870;-71
2022/05/15 11:40:39;;;;;;;2.87;1.70;;;21.20;69.50;;;;;;5048913;28;43948;-71
2022/05/15 11:43:35;;;;;;;2.50;1.70;;;21.30;68.70;;;;;;5048064;28;44131;-70
2022/05/15 11:46:04;;;;;;;3.93;2.03;;;21.50;68.20;;;;;;5048206;28;43959;-70
2022/05/15 11:48:49;;;;;;;2.53;1.73;;;21.70;67.60;;;;;;5042153;28;43965;-70
2022/05/15 11:51:28;;;;;;;2.00;1.90;;;21.90;67.00;;;;;;5044414;28;44047;-71
2022/05/15 11:53:57;;;;;;;6.67;1.60;;;22.10;66.40;;;;;;5046424;28;46008;-70
2022/05/15 11:56:26;;;;;;;1.77;1.70;;;22.30;65.90;;;;;;5048020;28;43947;-70
2022/05/15 11:58:55;;;;;;;2.20;1.80;;;22.40;65.20;;;;;;5029735;28;44022;-70
2022/05/15 12:01:41;;;;;;;1.90;1.80;;;22.50;65.20;;;;;;5048602;28;44013;-70
2022/05/15 12:04:19;;;;;;;3.50;1.90;;;22.70;64.90;;;;;;5047062;28;43957;-69
2022/05/15 12:06:49;;;;;;;1.73;1.60;;;22.70;64.30;;;;;;5042449;28;43827;-70
2022/05/15 12:09:49;;;;;;;2.30;1.60;;;22.70;65.30;;;;;;5048158;28;44051;-71
2022/05/15 12:12:45;;;;;;;2.30;1.57;;;22.50;65.30;;;;;;5048419;28;44060;-70
2022/05/15 12:15:27;;;;;;;3.07;1.70;;;22.30;64.80;;;;;;5044114;28;43910;-71
2022/05/15 12:17:56;;;;;;;1.70;1.60;;;22.00;64.50;;;;;;5029365;28;44391;-71
2022/05/15 12:20:35;;;;;;;3.03;1.67;;;21.90;64.80;;;;;;5047846;28;44020;-71
2022/05/15 12:23:06;;;;;;;1.70;1.70;;;21.80;67.50;;;;;;5023058;28;43878;-71
2022/05/15 12:25:36;;;;;;;1.70;1.70;;;21.70;68.00;;;;;;5041371;28;43862;-71
2022/05/15 12:30:54;;;;;;;1.70;1.60;;;21.80;67.90;;;;;;5047626;28;43952;-71
2022/05/15 12:33:24;;;;;;;1.50;1.50;;;21.80;67.50;;;;;;5048063;28;44085;-70
2022/05/15 12:35:53;;;;;;;1.60;1.50;;;21.70;66.60;;;;;;5028925;28;46268;-71
2022/05/15 12:38:22;;;;;;;1.47;1.47;;;21.50;65.90;;;;;;5047630;28;43949;-70
2022/05/15 12:40:57;;;;;;;1.60;1.60;;;21.50;66.20;;;;;;5045590;28;43873;-70
2022/05/15 12:43:29;;;;;;;1.70;1.70;;;21.40;66.40;;;;;;5047753;28;43980;-71
2022/05/15 12:45:57;;;;;;;2.60;1.53;;;21.30;66.60;;;;;;5047215;28;44022;-71
2022/05/15 12:48:25;;;;;;;1.63;1.53;;;21.30;66.70;;;;;;5047232;28;44062;-71
2022/05/15 12:51:01;;;;;;;2.00;1.70;;;21.30;66.90;;;;;;5047599;28;43484;-70
2022/05/15 12:53:30;;;;;;;1.87;1.77;;;21.20;69.10;;;;;;5048062;28;43893;-71
2022/05/15 12:56:08;;;;;;;2.47;1.50;;;21.30;69.90;;;;;;5047331;28;45198;-70
2022/05/15 12:58:39;;;;;;;2.73;1.83;;;21.40;69.50;;;;;;5042787;28;43334;-70
2022/05/15 13:01:07;;;;;;;2.63;1.80;;;21.50;69.10;;;;;;5047226;28;43980;-71
2022/05/15 13:03:35;;;;;;;3.40;1.80;;;21.70;68.70;;;;;;5047518;28;44048;-70
2022/05/15 13:06:07;;;;;;;1.70;1.60;;;21.70;68.40;;;;;;5028547;28;46391;-70
2022/05/15 13:08:45;;;;;;;2.70;1.73;;;21.70;68.30;;;;;;5028672;28;46057;-71
2022/05/15 13:11:15;;;;;;;1.60;1.50;;;21.70;66.70;;;;;;5047317;28;43996;-70
2022/05/15 13:13:43;;;;;;;1.77;1.60;;;21.60;66.30;;;;;;5029187;28;44256;-71
2022/05/15 13:16:16;;;;;;;1.80;1.70;;;21.50;66.40;;;;;;5046711;28;44062;-70
2022/05/15 13:18:45;;;;;;;1.87;1.77;;;21.40;66.60;;;;;;5046900;28;44171;-71
2022/05/15 13:21:22;;;;;;;1.50;1.50;;;21.40;66.80;;;;;;5047277;28;43851;-70
2022/05/15 13:23:50;;;;;;;1.90;1.80;;;21.30;69.40;;;;;;5047306;28;43951;-70
2022/05/15 13:26:20;;;;;;;1.80;1.70;;;21.40;69.90;;;;;;5046724;28;44071;-71
2022/05/15 13:28:47;;;;;;;4.00;1.60;;;21.40;69.50;;;;;;5045299;28;45080;-70
2022/05/15 13:31:15;;;;;;;1.80;1.70;;;21.50;68.90;;;;;;5046663;28;43338;-70
2022/05/15 13:33:44;;;;;;;2.00;1.50;;;21.50;67.30;;;;;;5029113;28;43763;-71